Molokai, HI

8:20 PM HST on October 24, 2014 (GMT -1000)
Lahaina | Change Station
CLOSE
Current Station
Airport
Location: Lahaina,
Elevation: 256 ft
Nearby Weather Stations

Elev 256 ft 20.96 °N, 156.67 °W | Updated 2 hours ago

Partly Cloudy
Partly Cloudy
79 °F
Feels Like 79 °F
N
14
Wind Variable Wind from ENE
Gusts 23 mph

Today
High -- | Low -- °F
--% Chance of Precip.
Yesterday
High -- | Low -- °F
Precip. -- in
6:27 AM 5:57 PM
New Moon, 2% visible
Pressure 29.98 in
Visibility 15.0 miles
Clouds Few 2500 ft
Few 4500 ft
Dew Point 68 °F
Humidity 69%
Rainfall 0.00 in
Snow Depth Not available.
UV 0 out of 12
Pollen Not available.
Air Quality Not available.
Flu Activity Sporadic
METAR PHJH 250350Z 06012G20KT 15SM FEW025 FEW045 26/20 A2998 RMK LAST

More Conditions Fewer Conditions

Pressure 29.98 in
Visibility 15.0 miles
Clouds Few 2500 ft
Few 4500 ft
Dew Point 68 °F
Humidity 69%
Rainfall 0.00 in
Snow Depth Not available.
UV 0 out of 12
Pollen Not available.
Air Quality Not available.
Flu Activity Sporadic
METAR PHJH 250350Z 06012G20KT 15SM FEW025 FEW045 26/20 A2998 RMK LAST

More Conditions Fewer Conditions

10-Day Weather Forecast

Almanac

Astronomy

Oct. 24, 2014 Rise Set
Actual Time 6:27 AM HST 5:57 PM HST
Civil Twilight 6:04 AM HST 6:19 PM HST
Nautical Twilight 5:38 AM HST 6:45 PM HST
Astronomical Twilight 5:12 AM HST 7:11 PM HST
Moon 7:13 AM HST (10/24) 6:51 PM HST (10/24)
Length of Visible Light 12h 14m
Length of Day
11h 29m
Tomorrow will be 1m 6s shorter.
New Moon, 2% of the Moon is Illuminated
Oct 25
New Moon
Oct 30
First Quarter
Nov 6
Full
Nov 14
Last Quarter
Nov 22
New

Yesterday's Extremes

State Highs State Lows

Community

WunderPhotos

Upload Photos

1,764,785 photos uploaded!

Nearby

Snow Depth

Station Depth Elevation
No new snow has been reported.

Earthquake Activity

City Distance Mag. Time & Date
No recent earthquake activity has been reported nearby.
Minimum magnitude displayed is 2.5.

Coastal Water Temperatures

Place Temperature
No Stations Reporting

Nearby Weather Stations